Time;durP1;ratioP1;P1;durP2;ratioP2;P2;SDS_P1;SDS_P2;PMS_P1;PMS_P2;Temp;Humidity;BMP_temperature;BMP_pressure;BME280_temperature;BME280_humidity;BME280_pressure;Samples;Min_cycle;Max_cycle;Signal;HPM_P1;HPM_P2
2022/07/08 00:00:12;;;;;;;0.60;0.10;;;17.50;99.90;;;;;;4950634;29;20490;-73
2022/07/08 00:02:40;;;;;;;0.60;0.20;;;17.50;99.90;;;;;;4935732;29;20542;-73
2022/07/08 00:05:08;;;;;;;0.60;0.10;;;17.50;99.90;;;;;;4935047;29;20472;-73
2022/07/08 00:07:37;;;;;;;0.60;0.13;;;;;;;;;;4935089;29;20551;-73
2022/07/08 00:10:06;;;;;;;0.60;0.10;;;17.50;99.90;;;;;;4937616;29;20485;-73
2022/07/08 00:12:34;;;;;;;0.60;0.10;;;17.40;99.90;;;;;;4953819;29;20538;-73
2022/07/08 00:15:04;;;;;;;0.60;0.10;;;17.30;99.90;;;;;;4953201;29;20471;-72
2022/07/08 00:17:32;;;;;;;0.60;0.10;;;17.30;99.90;;;;;;4952987;29;20447;-71
2022/07/08 00:20:00;;;;;;;0.60;0.10;;;17.30;99.90;;;;;;4954754;28;20981;-73
2022/07/08 00:22:28;;;;;;;0.60;0.10;;;17.30;99.90;;;;;;4937826;29;20823;-74
2022/07/08 00:24:56;;;;;;;0.60;0.10;;;17.30;99.90;;;;;;4937186;29;20467;-73
2022/07/08 00:27:24;;;;;;;0.60;0.10;;;17.30;99.90;;;;;;4937369;29;20454;-73
2022/07/08 00:29:52;;;;;;;0.60;0.10;;;17.30;99.90;;;;;;4937895;29;20574;-73
2022/07/08 00:32:21;;;;;;;0.60;0.10;;;17.30;99.90;;;;;;4955559;29;20455;-73
2022/07/08 00:34:50;;;;;;;0.60;0.10;;;17.30;99.90;;;;;;4936773;29;20491;-72
2022/07/08 00:37:18;;;;;;;0.60;0.20;;;17.30;99.90;;;;;;4936596;29;20543;-71
2022/07/08 00:39:46;;;;;;;0.60;0.10;;;18.20;99.90;;;;;;4935908;29;20446;-72
2022/07/08 00:42:14;;;;;;;0.60;0.10;;;17.20;99.90;;;;;;4937595;29;20780;-72
2022/07/08 00:44:42;;;;;;;0.60;0.10;;;17.20;99.90;;;;;;4936917;29;20471;-72
2022/07/08 00:47:10;;;;;;;0.60;0.10;;;17.20;99.90;;;;;;4937079;29;20448;-72
2022/07/08 00:49:39;;;;;;;0.60;0.10;;;17.20;99.90;;;;;;4937249;29;20479;-72
2022/07/08 00:52:08;;;;;;;0.60;0.10;;;17.10;99.90;;;;;;4937369;29;20484;-72
2022/07/08 00:54:37;;;;;;;0.60;0.20;;;17.10;99.90;;;;;;4918091;29;20465;-72
2022/07/08 00:57:06;;;;;;;0.60;0.10;;;;;;;;;;4917679;29;20460;-71
2022/07/08 00:59:34;;;;;;;0.60;0.10;;;17.10;99.90;;;;;;4918161;29;20453;-72
2022/07/08 01:02:02;;;;;;;0.60;0.10;;;17.00;99.90;;;;;;4917888;29;20544;-72
2022/07/08 01:04:30;;;;;;;0.60;0.10;;;17.00;99.90;;;;;;4918174;29;20465;-72
2022/07/08 01:07:00;;;;;;;0.60;0.10;;;17.10;99.90;;;;;;4927824;29;20450;-72
2022/07/08 01:09:28;;;;;;;0.60;0.10;;;17.10;99.90;;;;;;4956053;29;20458;-72
2022/07/08 01:11:56;;;;;;;0.60;0.10;;;17.00;99.90;;;;;;4956089;29;20821;-73
2022/07/08 01:14:25;;;;;;;0.60;0.10;;;17.00;99.90;;;;;;4955736;29;20566;-72
2022/07/08 01:16:53;;;;;;;0.60;0.10;;;17.00;99.90;;;;;;4955612;29;21080;-72
2022/07/08 01:19:21;;;;;;;0.60;0.10;;;17.00;99.90;;;;;;4955809;29;20450;-72
2022/07/08 01:21:50;;;;;;;0.60;0.10;;;17.00;99.90;;;;;;4956005;29;20446;-72
2022/07/08 01:24:18;;;;;;;0.60;0.10;;;17.00;99.90;;;;;;4942573;29;20882;-72
2022/07/08 01:26:46;;;;;;;0.60;0.10;;;17.00;99.90;;;;;;4932928;29;20913;-73
2022/07/08 01:29:15;;;;;;;0.60;0.10;;;17.00;99.90;;;;;;4936135;29;20495;-72
2022/07/08 01:31:42;;;;;;;0.60;0.10;;;16.90;99.90;;;;;;4935484;29;20490;-72
2022/07/08 01:34:11;;;;;;;0.60;0.10;;;16.90;99.90;;;;;;4935944;29;21069;-72
2022/07/08 01:36:38;;;;;;;0.60;0.10;;;16.90;99.90;;;;;;4936140;29;20456;-72
2022/07/08 01:39:08;;;;;;;0.60;0.10;;;16.90;99.90;;;;;;4936335;29;20444;-72
2022/07/08 01:41:36;;;;;;;0.60;0.10;;;16.90;99.90;;;;;;4948686;29;20945;-72
2022/07/08 01:44:04;;;;;;;0.60;0.10;;;16.80;99.90;;;;;;4955087;29;20485;-72
2022/07/08 01:46:32;;;;;;;0.60;0.10;;;16.80;99.90;;;;;;4954893;29;20443;-72
2022/07/08 01:48:59;;;;;;;0.60;0.10;;;16.90;99.90;;;;;;4955288;29;20541;-73
2022/07/08 01:51:28;;;;;;;0.60;0.10;;;16.80;99.90;;;;;;4955118;29;21026;-72
2022/07/08 01:53:56;;;;;;;0.60;0.20;;;16.80;99.90;;;;;;4955462;29;20466;-73
2022/07/08 01:56:25;;;;;;;0.60;0.10;;;16.80;99.90;;;;;;4937624;29;20452;-73
2022/07/08 01:58:53;;;;;;;0.60;0.10;;;16.80;99.90;;;;;;4936235;29;20547;-72
2022/07/08 02:01:21;;;;;;;0.60;0.10;;;16.80;99.90;;;;;;4935946;29;20448;-73
2022/07/08 02:03:49;;;;;;;0.60;0.10;;;16.70;99.90;;;;;;4935751;29;20478;-72
2022/07/08 02:06:17;;;;;;;0.60;0.10;;;16.60;99.90;;;;;;4935430;29;20547;-72
2022/07/08 02:08:45;;;;;;;0.60;0.10;;;16.60;99.90;;;;;;4936121;29;20451;-73
2022/07/08 02:14:00;;;;;;;0.60;0.10;;;16.50;99.90;;;;;;4955113;29;20467;-73
2022/07/08 02:16:27;;;;;;;0.60;0.10;;;16.60;99.90;;;;;;4954730;29;20457;-72
2022/07/08 02:18:55;;;;;;;0.60;0.10;;;16.60;99.90;;;;;;4954815;29;20484;-72
2022/07/08 02:21:23;;;;;;;0.60;0.10;;;16.60;99.90;;;;;;4954805;29;20956;-72
2022/07/08 02:23:51;;;;;;;0.60;0.10;;;16.60;99.90;;;;;;4954834;29;20462;-72
2022/07/08 02:26:19;;;;;;;0.60;0.20;;;16.60;99.90;;;;;;4954170;29;20778;-73
2022/07/08 02:28:47;;;;;;;0.60;0.10;;;16.60;99.90;;;;;;4951965;29;20988;-73
2022/07/08 02:31:16;;;;;;;0.60;0.10;;;16.60;99.90;;;;;;4954538;29;20485;-72
2022/07/08 02:33:44;;;;;;;0.60;0.10;;;16.60;99.90;;;;;;4954648;29;20455;-73
2022/07/08 02:36:12;;;;;;;0.60;0.10;;;16.60;99.90;;;;;;4954124;29;20465;-73
2022/07/08 02:38:39;;;;;;;0.60;0.20;;;16.50;99.90;;;;;;4954808;29;20537;-73
2022/07/08 02:41:08;;;;;;;0.60;0.10;;;;;;;;;;4954272;29;20938;-72
2022/07/08 02:43:35;;;;;;;0.60;0.20;;;16.50;99.90;;;;;;4954218;28;20479;-71
2022/07/08 02:46:03;;;;;;;0.60;0.10;;;16.50;99.90;;;;;;4935501;29;20454;-72
2022/07/08 02:48:34;;;;;;;0.60;0.10;;;16.50;99.90;;;;;;4934968;29;20462;-72
2022/07/08 02:51:02;;;;;;;0.60;0.10;;;16.50;99.90;;;;;;4935191;29;20488;-72
2022/07/08 02:53:30;;;;;;;0.60;0.10;;;16.50;99.90;;;;;;4935239;29;20454;-72
2022/07/08 02:55:58;;;;;;;0.60;0.10;;;16.50;99.90;;;;;;4934941;29;20547;-72
2022/07/08 02:58:26;;;;;;;0.60;0.10;;;16.50;99.90;;;;;;4934603;29;20461;-72
2022/07/08 03:00:54;;;;;;;0.60;0.10;;;16.60;99.90;;;;;;4935882;29;20459;-72
2022/07/08 03:03:22;;;;;;;0.60;0.10;;;16.50;99.90;;;;;;4935116;29;20538;-72
2022/07/08 03:05:51;;;;;;;0.60;0.10;;;16.50;99.90;;;;;;4934568;29;20471;-72
2022/07/08 03:08:19;;;;;;;0.60;0.10;;;16.50;99.90;;;;;;4934234;29;20448;-72
2022/07/08 03:10:49;;;;;;;0.60;0.10;;;;;;;;;;4934669;29;20490;-72
2022/07/08 03:13:16;;;;;;;0.60;0.10;;;16.50;99.90;;;;;;4917226;29;20458;-72
2022/07/08 03:15:45;;;;;;;0.60;0.10;;;16.60;99.90;;;;;;4915464;29;20469;-72
2022/07/08 03:18:13;;;;;;;0.60;0.10;;;16.60;99.90;;;;;;4935382;29;20498;-72
2022/07/08 03:20:41;;;;;;;0.60;0.10;;;16.60;99.90;;;;;;4954335;29;20446;-72
2022/07/08 03:23:10;;;;;;;0.60;0.20;;;16.60;99.90;;;;;;4954873;29;20833;-72
2022/07/08 03:25:38;;;;;;;0.60;0.10;;;16.60;99.90;;;;;;4954029;29;20508;-72
2022/07/08 03:28:05;;;;;;;0.60;0.10;;;16.60;99.90;;;;;;4944538;29;20450;-72
2022/07/08 03:30:33;;;;;;;0.60;0.10;;;16.60;99.90;;;;;;4934660;29;20444;-73
2022/07/08 03:33:01;;;;;;;0.60;0.20;;;16.60;99.90;;;;;;4934520;29;20543;-73
2022/07/08 03:35:29;;;;;;;0.60;0.10;;;;;;;;;;4934257;29;20521;-73
2022/07/08 03:37:57;;;;;;;0.60;0.10;;;16.60;99.90;;;;;;4933983;29;20446;-73
2022/07/08 03:43:13;;;;;;;0.60;0.10;;;16.60;99.90;;;;;;4934799;29;20458;-73
2022/07/08 03:45:40;;;;;;;0.60;0.10;;;16.60;99.90;;;;;;4934300;29;20474;-73
2022/07/08 03:48:08;;;;;;;0.60;0.10;;;16.60;99.90;;;;;;4933993;29;20453;-74
2022/07/08 03:50:36;;;;;;;0.60;0.10;;;16.60;99.90;;;;;;4935454;29;20448;-73
2022/07/08 03:53:04;;;;;;;0.60;0.10;;;16.60;99.90;;;;;;4934304;29;20926;-73
2022/07/08 03:55:33;;;;;;;0.60;0.10;;;16.60;99.90;;;;;;4937159;29;20893;-73
2022/07/08 03:58:01;;;;;;;0.60;0.10;;;16.60;99.90;;;;;;4938202;29;20455;-73
2022/07/08 04:00:29;;;;;;;0.60;0.10;;;16.50;99.90;;;;;;4937962;29;20975;-74
2022/07/08 04:03:03;;;;;;;0.60;0.10;;;16.50;99.90;;;;;;4938329;29;20446;-73
2022/07/08 04:05:31;;;;;;;0.60;0.10;;;16.50;99.90;;;;;;4931009;29;20473;-73
2022/07/08 04:07:59;;;;;;;0.60;0.10;;;16.50;99.90;;;;;;4948744;29;20451;-73
2022/07/08 04:10:27;;;;;;;0.60;0.10;;;16.50;99.90;;;;;;4956969;29;20937;-73
2022/07/08 04:12:56;;;;;;;0.60;0.20;;;16.50;99.90;;;;;;4957147;29;20502;-74
2022/07/08 04:15:24;;;;;;;0.60;0.10;;;16.50;99.90;;;;;;4951968;29;20482;-74
2022/07/08 04:17:53;;;;;;;0.60;0.10;;;16.60;99.90;;;;;;4933112;29;20891;-74
2022/07/08 04:20:21;;;;;;;0.60;0.10;;;16.50;99.90;;;;;;4937611;29;20455;-74
2022/07/08 04:22:49;;;;;;;0.60;0.10;;;16.60;99.90;;;;;;4938210;29;20451;-73
2022/07/08 04:25:17;;;;;;;0.60;0.10;;;16.60;99.90;;;;;;4940421;29;20475;-73
2022/07/08 04:27:45;;;;;;;0.60;0.10;;;16.60;99.90;;;;;;4951835;29;20474;-73
2022/07/08 04:30:14;;;;;;;0.60;0.10;;;16.60;99.90;;;;;;4937884;29;20450;-73
2022/07/08 04:32:42;;;;;;;0.60;0.10;;;16.60;99.90;;;;;;4936131;29;20486;-73
2022/07/08 04:35:10;;;;;;;0.60;0.10;;;16.70;99.90;;;;;;4933863;29;20812;-73
2022/07/08 04:37:38;;;;;;;0.60;0.10;;;16.70;99.90;;;;;;4937148;29;20454;-73
2022/07/08 04:40:07;;;;;;;0.60;0.13;;;16.70;99.90;;;;;;4937987;29;20469;-74
2022/07/08 04:42:36;;;;;;;0.60;0.10;;;;;;;;;;4935946;29;20455;-74
2022/07/08 04:45:05;;;;;;;0.60;0.20;;;16.70;99.90;;;;;;4933113;29;20482;-74
2022/07/08 04:47:35;;;;;;;0.60;0.10;;;16.70;99.90;;;;;;4941488;29;20455;-73
2022/07/08 04:50:03;;;;;;;0.60;0.10;;;16.70;99.90;;;;;;4941826;29;20447;-74
2022/07/08 04:52:31;;;;;;;0.60;0.10;;;16.70;99.90;;;;;;4941356;29;20483;-73
2022/07/08 04:54:59;;;;;;;0.60;0.20;;;16.80;99.90;;;;;;4956305;29;20467;-73
2022/07/08 04:57:29;;;;;;;0.60;0.10;;;16.80;99.90;;;;;;4956018;29;20458;-72
2022/07/08 04:59:56;;;;;;;0.60;0.10;;;16.80;99.90;;;;;;4940318;29;20942;-73
2022/07/08 05:02:24;;;;;;;0.60;0.10;;;16.80;99.90;;;;;;4937498;29;20455;-73
2022/07/08 05:04:54;;;;;;;0.60;0.10;;;16.90;99.90;;;;;;4937091;29;20507;-74
2022/07/08 05:07:22;;;;;;;0.60;0.10;;;16.90;99.90;;;;;;4937218;29;20487;-73
2022/07/08 05:09:49;;;;;;;0.60;0.10;;;16.90;99.90;;;;;;4937091;29;20458;-72
2022/07/08 05:12:17;;;;;;;0.60;0.10;;;16.90;99.90;;;;;;4923441;29;20595;-73
2022/07/08 05:14:45;;;;;;;0.60;0.10;;;16.90;99.90;;;;;;4936724;29;20483;-73
2022/07/08 05:17:13;;;;;;;0.60;0.10;;;17.00;99.90;;;;;;4936512;29;20458;-73
2022/07/08 05:19:41;;;;;;;0.60;0.10;;;17.00;99.90;;;;;;4936804;29;20462;-73
2022/07/08 05:22:10;;;;;;;0.60;0.20;;;17.00;99.90;;;;;;4936751;29;20444;-73
2022/07/08 05:24:38;;;;;;;0.60;0.10;;;17.00;99.90;;;;;;4936089;29;20562;-72
2022/07/08 05:27:06;;;;;;;0.60;0.10;;;17.00;99.90;;;;;;4944047;29;20467;-74
2022/07/08 05:29:34;;;;;;;0.60;0.10;;;17.10;99.90;;;;;;4936596;29;20446;-75
2022/07/08 05:32:02;;;;;;;0.60;0.20;;;17.10;99.90;;;;;;4936490;29;20521;-75
2022/07/08 05:34:30;;;;;;;0.60;0.10;;;17.20;99.90;;;;;;4936362;29;20475;-77
2022/07/08 05:36:58;;;;;;;0.60;0.10;;;17.20;99.90;;;;;;4936223;29;20865;-75
2022/07/08 05:39:27;;;;;;;0.60;0.10;;;17.30;99.90;;;;;;4935883;29;20478;-75
2022/07/08 05:41:55;;;;;;;0.60;0.10;;;17.20;99.90;;;;;;4936774;29;20535;-74
2022/07/08 05:44:24;;;;;;;0.60;0.10;;;17.20;99.90;;;;;;4939605;29;20466;-73
2022/07/08 05:46:52;;;;;;;0.60;0.20;;;17.30;99.90;;;;;;4944322;29;20465;-75
2022/07/08 05:49:20;;;;;;;0.60;0.10;;;17.30;99.90;;;;;;4945965;29;20446;-75
2022/07/08 05:51:48;;;;;;;0.60;0.10;;;17.30;99.90;;;;;;4944467;29;20438;-75
2022/07/08 05:54:16;;;;;;;0.60;0.10;;;17.30;99.90;;;;;;4944366;29;20532;-74
2022/07/08 05:56:45;;;;;;;0.60;0.10;;;17.30;99.90;;;;;;4948037;29;20451;-74
2022/07/08 05:59:13;;;;;;;0.60;0.10;;;17.40;99.90;;;;;;4939299;29;20487;-73
2022/07/08 06:01:41;;;;;;;0.60;0.20;;;17.30;99.90;;;;;;4935646;29;20490;-72
2022/07/08 06:04:09;;;;;;;0.60;0.10;;;17.40;99.90;;;;;;4935405;29;20852;-73
2022/07/08 06:06:37;;;;;;;0.60;0.10;;;17.40;99.90;;;;;;4935164;29;20463;-69
2022/07/08 06:09:05;;;;;;;0.60;0.10;;;17.60;99.90;;;;;;4944234;29;20468;-72
2022/07/08 06:11:33;;;;;;;0.60;0.10;;;17.70;99.90;;;;;;4954729;29;20573;-73
2022/07/08 06:14:02;;;;;;;0.60;0.20;;;17.80;99.90;;;;;;4942961;29;20494;-72
2022/07/08 06:16:30;;;;;;;0.60;0.10;;;18.00;99.90;;;;;;4936853;29;20443;-71
2022/07/08 06:18:58;;;;;;;0.60;0.10;;;18.10;99.90;;;;;;4942821;29;20963;-71
2022/07/08 06:21:26;;;;;;;0.60;0.17;;;18.00;99.90;;;;;;4943947;29;20442;-71
2022/07/08 06:23:54;;;;;;;0.80;0.30;;;18.20;99.90;;;;;;4946640;29;20811;-72
2022/07/08 06:26:22;;;;;;;0.60;0.10;;;18.20;99.90;;;;;;4948165;29;20447;-72
2022/07/08 06:28:49;;;;;;;0.60;0.10;;;18.30;99.90;;;;;;4943123;29;20451;-69
2022/07/08 06:31:19;;;;;;;0.60;0.10;;;18.30;99.90;;;;;;4946388;29;20457;-68
2022/07/08 06:33:47;;;;;;;0.60;0.10;;;18.30;99.90;;;;;;4944693;28;20486;-72
2022/07/08 06:36:16;;;;;;;0.60;0.20;;;18.30;99.90;;;;;;4944248;29;20444;-70
2022/07/08 06:38:44;;;;;;;0.60;0.10;;;18.40;99.90;;;;;;4943635;29;20447;-70
2022/07/08 06:41:12;;;;;;;0.60;0.20;;;18.40;99.90;;;;;;4941304;29;20461;-71
2022/07/08 06:43:40;;;;;;;0.60;0.10;;;18.20;99.90;;;;;;4941536;29;20442;-71
2022/07/08 06:46:09;;;;;;;0.60;0.17;;;18.50;99.90;;;;;;4944092;29;20550;-70
2022/07/08 06:48:38;;;;;;;0.60;0.10;;;18.60;99.90;;;;;;4942060;29;20521;-69
2022/07/08 06:51:06;;;;;;;0.60;0.10;;;18.70;99.90;;;;;;4943386;29;20447;-68
2022/07/08 06:56:16;;;;;;;0.60;0.10;;;18.70;99.90;;;;;;4939664;29;20444;-70
2022/07/08 06:58:44;;;;;;;0.60;0.10;;;18.80;99.90;;;;;;4943228;29;20453;-70
2022/07/08 07:01:12;;;;;;;0.60;0.20;;;18.80;99.90;;;;;;4940859;29;20511;-71
2022/07/08 07:03:41;;;;;;;0.60;0.10;;;18.80;99.90;;;;;;4940245;29;20618;-71
2022/07/08 07:06:09;;;;;;;0.60;0.10;;;18.80;99.90;;;;;;4938415;29;20498;-71
2022/07/08 07:08:37;;;;;;;0.60;0.10;;;18.90;99.90;;;;;;4941183;29;20853;-73
2022/07/08 07:11:05;;;;;;;0.60;0.10;;;18.90;99.90;;;;;;4936587;29;20531;-74
2022/07/08 07:13:33;;;;;;;0.60;0.20;;;18.90;99.90;;;;;;4948485;29;20570;-71
2022/07/08 07:16:01;;;;;;;0.60;0.10;;;18.80;99.90;;;;;;4953606;29;20454;-72
2022/07/08 07:18:29;;;;;;;0.60;0.20;;;18.80;99.90;;;;;;4947358;29;20461;-72
2022/07/08 07:20:59;;;;;;;0.60;0.10;;;18.60;99.90;;;;;;4943022;29;20799;-72
2022/07/08 07:23:27;;;;;;;0.60;0.10;;;;;;;;;;4945092;29;20954;-72
2022/07/08 07:25:56;;;;;;;0.60;0.10;;;18.60;99.90;;;;;;4940370;29;21082;-71
2022/07/08 07:28:24;;;;;;;0.60;0.20;;;18.60;99.90;;;;;;4941965;29;20452;-72
2022/07/08 07:30:52;;;;;;;0.60;0.10;;;18.50;99.90;;;;;;4942211;29;20440;-74
2022/07/08 07:33:20;;;;;;;0.60;0.20;;;18.50;99.90;;;;;;4942926;29;20479;-73
2022/07/08 07:35:48;;;;;;;0.60;0.10;;;18.50;99.90;;;;;;4944883;29;20514;-73
2022/07/08 07:38:17;;;;;;;0.60;0.10;;;18.50;99.90;;;;;;4935621;29;20468;-72
2022/07/08 07:40:46;;;;;;;0.60;0.10;;;;;;;;;;4932920;29;20556;-72
2022/07/08 07:43:14;;;;;;;0.60;0.10;;;18.60;99.90;;;;;;4933996;29;20483;-72
2022/07/08 07:45:42;;;;;;;0.60;0.10;;;18.50;99.90;;;;;;4926252;29;20471;-72
2022/07/08 07:48:10;;;;;;;0.60;0.20;;;18.40;99.90;;;;;;4936233;29;20549;-72
2022/07/08 07:50:40;;;;;;;0.60;0.10;;;18.50;99.90;;;;;;4943484;29;20454;-72
2022/07/08 07:53:08;;;;;;;0.60;0.20;;;18.50;99.90;;;;;;4947768;29;20871;-73
2022/07/08 07:55:37;;;;;;;0.60;0.10;;;18.50;99.90;;;;;;4942228;29;20826;-73
2022/07/08 07:58:05;;;;;;;0.60;0.10;;;18.50;99.90;;;;;;4952405;29;20968;-73
2022/07/08 08:00:33;;;;;;;0.60;0.10;;;18.50;99.90;;;;;;4948560;29;20453;-73
2022/07/08 08:03:01;;;;;;;0.60;0.10;;;18.50;99.90;;;;;;4933424;29;20533;-71
2022/07/08 08:05:29;;;;;;;0.60;0.10;;;18.50;99.90;;;;;;4938031;29;20816;-73
2022/07/08 08:07:56;;;;;;;0.60;0.10;;;18.50;99.90;;;;;;4933485;29;20995;-73
2022/07/08 08:10:24;;;;;;;0.60;0.10;;;18.60;99.90;;;;;;4942471;29;20449;-73
2022/07/08 08:12:55;;;;;;;0.60;0.10;;;18.60;99.90;;;;;;4939010;29;20967;-72
2022/07/08 08:15:25;;;;;;;0.60;0.10;;;18.60;99.90;;;;;;4943539;29;20921;-74
2022/07/08 08:17:53;;;;;;;0.60;0.10;;;18.80;99.90;;;;;;4939978;29;20443;-74
2022/07/08 08:20:24;;;;;;;0.60;0.20;;;17.00;99.90;;;;;;4936469;29;20494;-73
2022/07/08 08:22:53;;;;;;;0.60;0.10;;;18.90;99.90;;;;;;4936602;29;20510;-73
2022/07/08 08:25:43;;;;;;;0.60;0.13;;;18.90;99.90;;;;;;4939883;29;20462;-72
2022/07/08 08:28:13;;;;;;;0.60;0.10;;;18.90;99.90;;;;;;4940978;29;20460;-73
2022/07/08 08:30:41;;;;;;;0.60;0.10;;;;;;;;;;4937471;29;20450;-74
2022/07/08 08:33:09;;;;;;;0.60;0.10;;;18.90;99.90;;;;;;4936477;29;20462;-73
2022/07/08 08:35:37;;;;;;;0.60;0.10;;;;;;;;;;4941223;29;20489;-72
2022/07/08 08:38:05;;;;;;;0.60;0.10;;;18.80;99.90;;;;;;4945557;29;20892;-72
2022/07/08 08:40:33;;;;;;;0.60;0.13;;;18.80;99.90;;;;;;4943644;29;20935;-72
2022/07/08 08:43:01;;;;;;;0.60;0.20;;;18.80;99.90;;;;;;4942595;29;20449;-72
2022/07/08 08:45:35;;;;;;;0.60;0.10;;;18.90;99.90;;;;;;4944988;29;20457;-73
2022/07/08 08:48:07;;;;;;;0.60;0.10;;;19.00;99.90;;;;;;4944551;29;20443;-73
2022/07/08 08:50:54;;;;;;;0.60;0.10;;;19.00;99.90;;;;;;4944161;29;20443;-72
2022/07/08 08:53:28;;;;;;;0.60;0.10;;;19.10;99.90;;;;;;4938902;29;20907;-71
2022/07/08 08:55:57;;;;;;;0.60;0.10;;;19.20;99.90;;;;;;4936911;29;20445;-73
2022/07/08 08:58:26;;;;;;;0.60;0.20;;;19.20;99.90;;;;;;4935697;29;20462;-71
2022/07/08 09:00:55;;;;;;;0.60;0.10;;;19.20;99.90;;;;;;4933415;29;20448;-72
2022/07/08 09:03:23;;;;;;;0.60;0.20;;;19.30;99.90;;;;;;4940024;29;20451;-72
2022/07/08 09:05:51;;;;;;;0.60;0.10;;;19.20;99.90;;;;;;4947321;29;20480;-72
2022/07/08 09:08:19;;;;;;;0.60;0.10;;;19.30;99.90;;;;;;4941721;29;20874;-73
2022/07/08 09:10:47;;;;;;;0.60;0.10;;;19.30;99.90;;;;;;4944598;29;20451;-73
2022/07/08 09:13:16;;;;;;;0.60;0.10;;;19.20;99.90;;;;;;4941652;29;20448;-73
2022/07/08 09:15:46;;;;;;;0.60;0.20;;;19.20;99.90;;;;;;4946104;29;21010;-73
2022/07/08 09:18:16;;;;;;;0.60;0.13;;;19.20;99.90;;;;;;4946362;29;20454;-74
2022/07/08 09:20:46;;;;;;;0.60;0.10;;;19.10;99.90;;;;;;4942733;29;20546;-74
2022/07/08 09:23:16;;;;;;;0.60;0.10;;;19.00;99.90;;;;;;4942012;29;20951;-73
2022/07/08 09:25:46;;;;;;;0.60;0.10;;;19.10;99.90;;;;;;4940974;29;21003;-73
2022/07/08 09:28:15;;;;;;;0.60;0.10;;;19.10;99.90;;;;;;4942481;29;20468;-73
2022/07/08 09:30:47;;;;;;;0.60;0.10;;;;;;;;;;4944226;29;20457;-73
2022/07/08 09:33:17;;;;;;;0.60;0.10;;;19.50;99.90;;;;;;4944782;29;20452;-73
2022/07/08 09:35:50;;;;;;;0.60;0.10;;;19.50;99.90;;;;;;4943589;29;20576;-73
2022/07/08 09:38:20;;;;;;;0.60;0.10;;;19.50;99.90;;;;;;4946104;29;20434;-73
2022/07/08 09:40:55;;;;;;;0.60;0.10;;;;;;;;;;4945636;29;20443;-74
2022/07/08 09:43:24;;;;;;;0.60;0.10;;;19.50;99.90;;;;;;4942912;29;20543;-73
2022/07/08 09:45:52;;;;;;;0.60;0.10;;;;;;;;;;4947075;29;20455;-74
2022/07/08 09:48:25;;;;;;;0.60;0.10;;;19.60;99.90;;;;;;4943645;29;20455;-74
2022/07/08 09:50:53;;;;;;;0.60;0.10;;;19.80;99.90;;;;;;4945953;29;20519;-74
2022/07/08 09:53:31;;;;;;;0.60;0.10;;;19.80;99.90;;;;;;4944260;29;20459;-75
2022/07/08 09:56:02;;;;;;;0.60;0.10;;;19.80;99.90;;;;;;4946311;29;20570;-74
2022/07/08 09:58:32;;;;;;;0.60;0.20;;;19.90;99.90;;;;;;4946428;29;20524;-74
2022/07/08 10:01:00;;;;;;;0.70;0.20;;;19.90;99.90;;;;;;4946262;29;20465;-75
2022/07/08 10:03:35;;;;;;;0.60;0.10;;;20.10;99.90;;;;;;4946548;29;20461;-74
2022/07/08 10:06:03;;;;;;;0.60;0.10;;;;;;;;;;4942134;29;20490;-75
2022/07/08 10:08:32;;;;;;;0.60;0.10;;;20.20;99.90;;;;;;4944625;29;20443;-74
2022/07/08 10:11:06;;;;;;;0.67;0.13;;;20.30;99.90;;;;;;4946970;29;20447;-75
2022/07/08 10:13:35;;;;;;;0.70;0.20;;;20.30;99.90;;;;;;4954931;29;20439;-75
2022/07/08 10:16:09;;;;;;;0.70;0.10;;;20.40;99.90;;;;;;4954267;29;20537;-74
2022/07/08 10:18:45;;;;;;;0.60;0.20;;;20.40;99.90;;;;;;4950572;29;20586;-74
2022/07/08 10:21:17;;;;;;;0.67;0.17;;;20.50;99.90;;;;;;4944481;29;20459;-73
2022/07/08 10:23:51;;;;;;;0.67;0.20;;;20.40;99.90;;;;;;4935887;29;20463;-75
2022/07/08 10:26:21;;;;;;;0.70;0.10;;;20.40;99.90;;;;;;4932807;29;20444;-74
2022/07/08 10:29:01;;;;;;;0.60;0.10;;;20.40;99.90;;;;;;4935895;29;20456;-74
2022/07/08 10:31:29;;;;;;;0.70;0.20;;;20.60;99.90;;;;;;4944329;29;20455;-75
2022/07/08 10:34:02;;;;;;;0.70;0.10;;;20.60;99.90;;;;;;4941274;29;20470;-68
2022/07/08 10:36:44;;;;;;;0.70;0.10;;;20.80;99.90;;;;;;4943307;29;20998;-70
2022/07/08 10:39:13;;;;;;;0.70;0.20;;;20.90;99.90;;;;;;4943496;29;20444;-70
2022/07/08 10:41:55;;;;;;;0.70;0.10;;;20.90;99.90;;;;;;4945822;29;20454;-71
2022/07/08 10:44:52;;;;;;;0.70;0.13;;;21.10;99.90;;;;;;4945176;29;20459;-72
2022/07/08 10:47:28;;;;;;;0.70;0.20;;;21.20;99.90;;;;;;4943701;29;20448;-70
2022/07/08 10:50:06;;;;;;;0.70;0.10;;;21.40;99.90;;;;;;4938621;29;20439;-69
2022/07/08 10:52:39;;;;;;;2.00;1.80;;;21.40;99.90;;;;;;4935392;29;20479;-68
2022/07/08 10:55:14;;;;;;;0.70;0.10;;;21.50;99.90;;;;;;4934865;29;20494;-69
2022/07/08 10:57:54;;;;;;;0.70;0.10;;;21.50;99.90;;;;;;4927171;29;20479;-70
2022/07/08 11:00:22;;;;;;;0.70;0.10;;;21.60;99.90;;;;;;4935183;29;20460;-69
2022/07/08 11:02:51;;;;;;;0.70;0.10;;;21.60;99.90;;;;;;4934487;29;20801;-68
2022/07/08 11:05:37;;;;;;;0.70;0.10;;;21.70;99.90;;;;;;4934792;29;20476;-69
2022/07/08 11:08:24;;;;;;;0.70;0.10;;;21.70;99.90;;;;;;4934502;29;20456;-69
2022/07/08 11:10:55;;;;;;;0.70;0.10;;;21.90;99.90;;;;;;4935986;29;20479;-69
2022/07/08 11:13:24;;;;;;;0.70;0.10;;;;;;;;;;4935605;29;20450;-70
2022/07/08 11:15:53;;;;;;;0.70;0.10;;;;;;;;;;4944541;29;20563;-70
2022/07/08 11:18:22;;;;;;;0.70;0.10;;;22.10;99.90;;;;;;4943023;29;20446;-70
2022/07/08 11:20:57;;;;;;;0.70;0.10;;;22.20;99.90;;;;;;4944221;29;20521;-69
2022/07/08 11:23:25;;;;;;;0.70;0.10;;;22.20;99.90;;;;;;4944464;29;20777;-70
2022/07/08 11:25:57;;;;;;;0.70;0.10;;;22.30;99.90;;;;;;4953754;29;20472;-69
2022/07/08 11:28:25;;;;;;;0.70;0.10;;;22.30;99.90;;;;;;4941224;29;20466;-68
2022/07/08 11:30:54;;;;;;;0.70;0.20;;;22.40;99.90;;;;;;4932524;29;20514;-70
2022/07/08 11:33:39;;;;;;;0.70;0.10;;;22.40;99.90;;;;;;4931666;29;20448;-69
2022/07/08 11:36:15;;;;;;;0.70;0.10;;;22.50;99.90;;;;;;4933823;29;20495;-70
2022/07/08 11:38:43;;;;;;;0.70;0.20;;;22.50;99.90;;;;;;4915586;29;20480;-70
2022/07/08 11:41:11;;;;;;;0.70;0.10;;;22.50;99.90;;;;;;4936480;29;20456;-68
2022/07/08 11:43:39;;;;;;;0.70;0.20;;;22.50;99.90;;;;;;4932492;29;20928;-70
2022/07/08 11:46:18;;;;;;;0.70;0.10;;;22.50;99.90;;;;;;4933133;29;20440;-70
2022/07/08 11:48:47;;;;;;;0.70;0.20;;;22.50;99.90;;;;;;4913585;29;20497;-72
2022/07/08 11:51:17;;;;;;;0.93;0.30;;;22.50;99.90;;;;;;4928910;29;20448;-69
2022/07/08 11:53:46;;;;;;;0.70;0.20;;;22.40;99.90;;;;;;4926863;29;20447;-68
2022/07/08 11:56:14;;;;;;;0.70;0.10;;;22.40;99.90;;;;;;4937442;29;20489;-69
2022/07/08 11:58:42;;;;;;;0.70;0.20;;;22.50;99.90;;;;;;4941668;29;20528;-69
2022/07/08 12:01:10;;;;;;;0.70;0.10;;;22.60;99.90;;;;;;4945911;23;20506;-73
2022/07/08 12:03:38;;;;;;;0.80;0.40;;;22.70;99.90;;;;;;4935371;29;20444;-72
2022/07/08 12:06:06;;;;;;;0.70;0.10;;;22.70;99.90;;;;;;4934297;29;20443;-73
2022/07/08 12:08:42;;;;;;;0.70;0.20;;;22.70;99.90;;;;;;4934765;29;20471;-72
2022/07/08 12:11:15;;;;;;;0.70;0.10;;;22.70;99.90;;;;;;4934267;29;20528;-73
2022/07/08 12:13:44;;;;;;;0.70;0.10;;;22.70;99.90;;;;;;4933972;29;20535;-74
2022/07/08 12:16:28;;;;;;;0.70;0.20;;;22.70;99.90;;;;;;4936094;29;20479;-74
2022/07/08 12:18:56;;;;;;;0.70;0.10;;;22.10;99.90;;;;;;4932167;29;20455;-74
2022/07/08 12:21:24;;;;;;;0.87;0.37;;;23.10;99.90;;;;;;4930599;29;20850;-73
2022/07/08 12:23:57;;;;;;;0.70;0.10;;;23.10;99.90;;;;;;4935067;29;20493;-73
2022/07/08 12:26:25;;;;;;;0.70;0.10;;;23.10;99.90;;;;;;4934478;29;20486;-72
2022/07/08 12:28:54;;;;;;;0.70;0.10;;;23.10;99.90;;;;;;4936776;29;20458;-74
2022/07/08 12:31:35;;;;;;;0.70;0.20;;;23.00;99.90;;;;;;4931534;29;20487;-74
2022/07/08 12:34:04;;;;;;;0.70;0.10;;;23.00;99.90;;;;;;4936050;29;20450;-74
2022/07/08 12:36:32;;;;;;;0.70;0.17;;;23.10;99.90;;;;;;4937651;29;20483;-76
2022/07/08 12:39:13;;;;;;;0.70;0.10;;;23.20;99.90;;;;;;4939815;29;20482;-73
2022/07/08 12:41:42;;;;;;;0.70;0.10;;;23.30;99.90;;;;;;4936047;29;20519;-72
2022/07/08 12:44:28;;;;;;;0.70;0.10;;;23.30;99.90;;;;;;4937222;29;20810;-73
2022/07/08 12:46:56;;;;;;;0.70;0.10;;;23.30;99.90;;;;;;4934955;29;21302;-73
2022/07/08 12:49:25;;;;;;;0.70;0.20;;;23.40;99.90;;;;;;4936981;29;20485;-74
2022/07/08 12:51:53;;;;;;;0.70;0.10;;;23.50;99.90;;;;;;4933493;29;20471;-74
2022/07/08 12:54:23;;;;;;;0.70;0.20;;;23.50;99.90;;;;;;4929386;29;20471;-74
2022/07/08 12:56:53;;;;;;;0.70;0.20;;;23.50;99.90;;;;;;4937209;29;20479;-73
2022/07/08 12:59:21;;;;;;;0.70;0.10;;;23.60;99.90;;;;;;4937435;29;20962;-74
2022/07/08 13:01:49;;;;;;;0.70;0.20;;;23.70;99.90;;;;;;4936763;29;20486;-73
2022/07/08 13:04:17;;;;;;;0.90;0.20;;;23.70;99.90;;;;;;4937369;29;20534;-74
2022/07/08 13:06:46;;;;;;;0.70;0.10;;;23.80;99.90;;;;;;4936289;29;20440;-73
2022/07/08 13:09:15;;;;;;;0.70;0.10;;;23.80;99.90;;;;;;4936583;29;21053;-73
2022/07/08 13:11:45;;;;;;;0.70;0.20;;;23.90;99.90;;;;;;4937658;29;21006;-73